Weyanoke, Louisiana
Current Conditions -  °F | °C
As of 10:15 PM on Sunday 23 Nov 2014 (Local Time) from KHZR Reporting Station
Clear Clear  
Wind Chill: 66°   Ceiling: Unl
Heat Index: 66°   Visibility: 7mi
Dew Point: 64°   Wind: 8mph
Humidity: 94%   Direction: 200°SSW
Pressure: 29.7"   Gusts: NA
Location:  30.95°N, 91.46°W
Report Text: KHZR 240415Z AUTO 20007KT 7SM CLR 19/18 A2970 RMK AO2 T01880179
Loading
Personal Weather Stations






























Interactive Weather Map New forecast layout! Learn more

10-Day Weather Forecast

Advertisements
Track Severe Weather on mobile